Terminal Aerodrome Forecast
Issued by NWS Buffalo, NY

Home | Current Version | Previous Version | Text Only | Print | Product List | Glossary On
Versions: 1 2 3 4 5 6 7 8 9 10 11 12 13 14 15 16 17 18 19 20 21 22 23 24
000
FTUS41 KBUF 230837 AAA
TAFBUF
TAF AMD
KBUF 230837Z 2309/2406 00000KT P6SM SKC
     FM231500 21005KT P6SM SCT200
     FM232100 VRB04KT P6SM BKN150
     FM240300 15005KT P6SM BKN100=

USA.gov is the U.S. government's official web portal to all federal, state and local government web resources and services.